Time;durP1;ratioP1;P1;durP2;ratioP2;P2;SDS_P1;SDS_P2;PMS_P1;PMS_P2;Temp;Humidity;BMP_temperature;BMP_pressure;BME280_temperature;BME280_humidity;BME280_pressure;Samples;Min_cycle;Max_cycle;Signal;HPM_P1;HPM_P2
2021/06/29 00:01:14;;;;;;;30.45;10.57;;;;;;;;;;5066832;28;20029;-69
2021/06/29 00:03:40;;;;;;;24.25;10.45;;;;;;;;;;5067203;28;20078;-68
2021/06/29 00:06:07;;;;;;;31.48;11.73;;;;;;;;;;5066145;28;20029;-70
2021/06/29 00:08:33;;;;;;;35.63;12.10;;;;;;;;;;5066484;28;20423;-69
2021/06/29 00:10:59;;;;;;;29.73;11.65;;;;;;;;;;5066637;28;20024;-69
2021/06/29 00:13:25;;;;;;;33.67;11.48;;;;;;;;;;5067099;28;20016;-69
2021/06/29 00:15:51;;;;;;;24.40;10.80;;;;;;;;;;5065077;28;20032;-69
2021/06/29 00:18:17;;;;;;;28.10;10.57;;;;;;;;;;5066831;28;20164;-69
2021/06/29 00:20:44;;;;;;;36.90;12.18;;;;;;;;;;5067172;28;20123;-69
2021/06/29 00:23:10;;;;;;;33.63;11.88;;;;;;;;;;5066718;28;20096;-69
2021/06/29 00:25:36;;;;;;;37.75;11.43;;;;;;;;;;5066414;28;20029;-69
2021/06/29 00:28:02;;;;;;;24.98;10.52;;;;;;;;;;5064703;28;20028;-69
2021/06/29 00:30:28;;;;;;;33.83;12.25;;;;;;;;;;5066747;28;20012;-69
2021/06/29 00:32:55;;;;;;;31.73;11.77;;;;;;;;;;5066610;28;20051;-69
2021/06/29 00:35:21;;;;;;;30.90;11.68;;;;;;;;;;5065464;28;20035;-69
2021/06/29 00:37:47;;;;;;;33.55;11.23;;;;;;;;;;5066617;28;20420;-70
2021/06/29 00:40:14;;;;;;;32.50;12.13;;;;;;;;;;5064791;28;20415;-69
2021/06/29 00:42:41;;;;;;;31.40;11.73;;;;;;;;;;5066554;28;20024;-69
2021/06/29 00:45:08;;;;;;;36.08;11.10;;;;;;;;;;5066300;28;20024;-69
2021/06/29 00:47:35;;;;;;;31.15;12.52;;;;;;;;;;5066518;28;20063;-69
2021/06/29 00:50:01;;;;;;;31.25;11.45;;;;;;;;;;5066282;28;20052;-69
2021/06/29 00:52:27;;;;;;;29.80;10.98;;;;;;;;;;5066271;28;20035;-69
2021/06/29 00:54:53;;;;;;;97.22;14.50;;;;;;;;;;5064783;28;20429;-69
2021/06/29 00:57:20;;;;;;;43.70;11.75;;;;;;;;;;5066272;28;20012;-69
2021/06/29 00:59:46;;;;;;;35.03;11.80;;;;;;;;;;5066443;28;20032;-69
2021/06/29 01:02:13;;;;;;;31.77;11.50;;;;;;;;;;5047937;28;20406;-69
2021/06/29 01:04:40;;;;;;;37.97;11.68;;;;;;;;;;5063919;28;20166;-69
2021/06/29 01:07:06;;;;;;;30.98;11.95;;;;;;;;;;5066244;28;20035;-69
2021/06/29 01:09:37;;;;;;;37.15;11.57;;;;;;;;;;5066631;28;20029;-69
2021/06/29 01:12:03;;;;;;;30.75;10.57;;;;;;;;;;5064478;28;20032;-69
2021/06/29 01:14:29;;;;;;;33.85;11.60;;;;;;;;;;5066076;28;20036;-70
2021/06/29 01:16:57;;;;;;;36.63;11.35;;;;;;;;;;5065939;28;20421;-70
2021/06/29 01:19:32;;;;;;;26.33;11.43;;;;;;;;;;5065978;28;20032;-70
2021/06/29 01:21:59;;;;;;;31.95;12.18;;;;;;;;;;5065923;28;20031;-70
2021/06/29 01:24:30;;;;;;;31.60;11.43;;;;;;;;;;5064205;28;20107;-70
2021/06/29 01:32:21;;;;;;;41.17;11.80;;;;;;;;;;5044276;28;20112;-70
2021/06/29 01:34:47;;;;;;;36.03;11.77;;;;;;;;;;5045947;28;20047;-70
2021/06/29 01:37:15;;;;;;;36.70;11.13;;;;;;;;;;5046197;28;20025;-70
2021/06/29 01:39:57;;;;;;;33.53;11.00;;;;;;;;;;5045641;28;20021;-70
2021/06/29 01:42:24;;;;;;;30.63;11.18;;;;;;;;;;5031730;28;20108;-69
2021/06/29 01:44:51;;;;;;;26.23;10.77;;;;;;;;;;5029889;28;20301;-69
2021/06/29 01:47:26;;;;;;;33.83;11.18;;;;;;;;;;5028959;28;20160;-69
2021/06/29 01:49:52;;;;;;;33.00;11.43;;;;;;;;;;5035229;28;20131;-70
2021/06/29 01:52:18;;;;;;;37.50;12.30;;;;;;;;;;5049476;28;20029;-70
2021/06/29 01:54:45;;;;;;;37.78;11.15;;;;;;;;;;5050092;28;20104;-70
2021/06/29 01:57:18;;;;;;;30.88;11.95;;;;;;;;;;5030246;28;20029;-69
2021/06/29 01:59:47;;;;;;;35.83;11.50;;;;;;;;;;5049835;28;20147;-70
2021/06/29 02:02:14;;;;;;;35.38;11.57;;;;;;;;;;5049215;28;20056;-70
2021/06/29 02:04:40;;;;;;;38.95;11.13;;;;;;;;;;5049503;28;20132;-70
2021/06/29 02:07:06;;;;;;;41.90;10.82;;;;;;;;;;5048169;28;20428;-69
2021/06/29 02:09:32;;;;;;;37.55;10.70;;;;;;;;;;5049266;28;20049;-70
2021/06/29 02:11:59;;;;;;;38.88;12.05;;;;;;;;;;5049418;28;20028;-69
2021/06/29 02:14:25;;;;;;;30.23;11.93;;;;;;;;;;5049267;28;20056;-70
2021/06/29 02:16:51;;;;;;;32.75;11.30;;;;;;;;;;5049098;28;20068;-70
2021/06/29 02:19:17;;;;;;;32.25;10.60;;;;;;;;;;5047598;28;20036;-70
2021/06/29 02:21:43;;;;;;;40.05;11.90;;;;;;;;;;5049225;28;20021;-69
2021/06/29 02:24:09;;;;;;;34.03;11.13;;;;;;;;;;5049310;28;20504;-69
2021/06/29 02:26:35;;;;;;;29.20;10.20;;;;;;;;;;5048793;28;20025;-70
2021/06/29 02:29:02;;;;;;;36.88;12.45;;;;;;;;;;5057979;28;20143;-69
2021/06/29 02:31:28;;;;;;;30.40;12.25;;;;;;;;;;5068550;28;20050;-70
2021/06/29 02:33:54;;;;;;;37.15;12.38;;;;;;;;;;5068871;28;20024;-70
2021/06/29 02:36:20;;;;;;;30.73;10.68;;;;;;;;;;5068918;28;20303;-70
2021/06/29 02:38:46;;;;;;;32.72;10.50;;;;;;;;;;5068574;28;20031;-69
2021/06/29 02:41:12;;;;;;;35.60;11.55;;;;;;;;;;5068924;28;20087;-70
2021/06/29 02:43:40;;;;;;;32.10;11.02;;;;;;;;;;5067032;28;20031;-70
2021/06/29 02:46:06;;;;;;;31.95;10.63;;;;;;;;;;5050665;28;20456;-69
2021/06/29 02:48:33;;;;;;;26.73;11.32;;;;;;;;;;5068598;28;20118;-70
2021/06/29 02:50:59;;;;;;;24.63;10.60;;;;;;;;;;5068570;28;20291;-70
2021/06/29 02:53:25;;;;;;;34.28;10.93;;;;;;;;;;5068599;28;20074;-70
2021/06/29 02:55:51;;;;;;;40.90;10.75;;;;;;;;;;5066717;28;20029;-70
2021/06/29 02:58:18;;;;;;;25.40;10.63;;;;;;;;;;5067613;28;20107;-70
2021/06/29 03:00:44;;;;;;;37.03;11.35;;;;;;;;;;5068622;28;20031;-70
2021/06/29 03:03:10;;;;;;;35.78;10.07;;;;;;;;;;5059971;28;20056;-70
2021/06/29 03:05:36;;;;;;;32.45;10.95;;;;;;;;;;5063463;28;20067;-69
2021/06/29 03:08:02;;;;;;;27.10;10.00;;;;;;;;;;5063439;28;20099;-69
2021/06/29 03:10:29;;;;;;;33.50;10.57;;;;;;;;;;5045601;28;20051;-69
2021/06/29 03:12:55;;;;;;;37.47;10.75;;;;;;;;;;5063145;28;20358;-69
2021/06/29 03:15:21;;;;;;;38.20;10.68;;;;;;;;;;5045499;28;20171;-69
2021/06/29 03:17:50;;;;;;;31.40;11.18;;;;;;;;;;5061956;28;20381;-69
2021/06/29 03:20:16;;;;;;;33.28;10.75;;;;;;;;;;5063460;28;20107;-69
2021/06/29 03:22:42;;;;;;;35.70;10.30;;;;;;;;;;5062752;28;20017;-69
2021/06/29 03:25:09;;;;;;;34.25;9.95;;;;;;;;;;5050084;28;20029;-69
2021/06/29 03:27:35;;;;;;;32.65;9.65;;;;;;;;;;5061669;28;20393;-69
2021/06/29 03:30:02;;;;;;;24.05;9.65;;;;;;;;;;5045020;28;20492;-69
2021/06/29 03:32:28;;;;;;;27.10;9.93;;;;;;;;;;5062941;28;20035;-69
2021/06/29 03:34:54;;;;;;;29.88;10.23;;;;;;;;;;5062882;28;20028;-69
2021/06/29 03:37:20;;;;;;;37.33;11.90;;;;;;;;;;5061633;28;20028;-71
2021/06/29 03:39:47;;;;;;;39.55;11.52;;;;;;;;;;5063141;28;20059;-70
2021/06/29 03:42:13;;;;;;;36.42;10.90;;;;;;;;;;5062856;28;20054;-69
2021/06/29 03:44:39;;;;;;;38.15;11.50;;;;;;;;;;5062401;28;20025;-69
2021/06/29 03:47:05;;;;;;;49.85;12.98;;;;;;;;;;5062994;28;20020;-69
2021/06/29 03:49:31;;;;;;;38.30;11.07;;;;;;;;;;5061264;28;20043;-69
2021/06/29 03:51:57;;;;;;;34.85;11.27;;;;;;;;;;5062334;28;20358;-69
2021/06/29 03:54:24;;;;;;;34.08;10.77;;;;;;;;;;5062694;28;20062;-69
2021/06/29 03:56:50;;;;;;;34.80;13.20;;;;;;;;;;5062727;28;20438;-70
2021/06/29 03:59:16;;;;;;;30.42;11.85;;;;;;;;;;5062137;28;20431;-70
2021/06/29 04:01:42;;;;;;;37.35;11.85;;;;;;;;;;5061597;28;20028;-69
2021/06/29 04:04:09;;;;;;;37.90;14.48;;;;;;;;;;5060658;28;20033;-69
2021/06/29 04:06:36;;;;;;;33.35;9.68;;;;;;;;;;5062126;28;20020;-72
2021/06/29 04:09:04;;;;;;;28.50;8.35;;;;;;;;;;5061894;28;20113;-72
2021/06/29 04:11:30;;;;;;;25.98;8.55;;;;;;;;;;5061999;28;20036;-70
2021/06/29 04:13:57;;;;;;;24.77;8.40;;;;;;;;;;5061819;28;20032;-69
2021/06/29 04:16:23;;;;;;;26.90;7.80;;;;;;;;;;5060179;28;20024;-69
2021/06/29 04:18:50;;;;;;;33.88;8.80;;;;;;;;;;5062442;28;20036;-69
2021/06/29 04:21:16;;;;;;;30.55;8.50;;;;;;;;;;5061820;28;20021;-70
2021/06/29 04:23:44;;;;;;;30.70;8.73;;;;;;;;;;5061826;28;20025;-69
2021/06/29 04:26:10;;;;;;;33.17;8.30;;;;;;;;;;5061906;28;20487;-69
2021/06/29 04:28:37;;;;;;;32.53;8.73;;;;;;;;;;5062059;28;20186;-70
2021/06/29 04:31:03;;;;;;;22.23;7.82;;;;;;;;;;5060038;28;20024;-70
2021/06/29 04:33:29;;;;;;;23.25;7.00;;;;;;;;;;5061678;28;20384;-69
2021/06/29 04:35:55;;;;;;;36.25;9.13;;;;;;;;;;5061569;28;20029;-70
2021/06/29 04:38:21;;;;;;;26.35;8.00;;;;;;;;;;5061557;28;20236;-70
2021/06/29 04:40:47;;;;;;;28.98;7.53;;;;;;;;;;5060219;28;20109;-70
2021/06/29 04:43:14;;;;;;;40.47;9.73;;;;;;;;;;5061614;28;20452;-70
2021/06/29 04:45:40;;;;;;;36.80;10.00;;;;;;;;;;5061736;28;20036;-70
2021/06/29 04:48:06;;;;;;;33.20;9.93;;;;;;;;;;5061068;28;20101;-70
2021/06/29 04:50:33;;;;;;;34.63;8.95;;;;;;;;;;5061947;28;20171;-69
2021/06/29 04:52:59;;;;;;;25.67;8.48;;;;;;;;;;5059983;28;20083;-69
2021/06/29 04:55:25;;;;;;;28.77;9.50;;;;;;;;;;5061066;28;20036;-69
2021/06/29 04:57:51;;;;;;;23.10;7.35;;;;;;;;;;5061972;28;20369;-70
2021/06/29 05:00:19;;;;;;;28.88;9.23;;;;;;;;;;5061657;28;20021;-70
2021/06/29 05:02:46;;;;;;;28.35;8.43;;;;;;;;;;5061568;28;20024;-69
2021/06/29 05:05:12;;;;;;;26.23;7.43;;;;;;;;;;5061385;28;20370;-69
2021/06/29 05:07:39;;;;;;;26.95;8.98;;;;;;;;;;5056005;28;20016;-74
2021/06/29 05:10:06;;;;;;;26.80;7.60;;;;;;;;;;5059513;28;20025;-70
2021/06/29 05:12:33;;;;;;;26.45;7.82;;;;;;;;;;5060940;28;20082;-70
2021/06/29 05:14:59;;;;;;;25.90;8.20;;;;;;;;;;5060778;28;20040;-70
2021/06/29 05:17:25;;;;;;;29.70;8.93;;;;;;;;;;5058707;28;20032;-70
2021/06/29 05:19:51;;;;;;;30.77;8.80;;;;;;;;;;5046483;28;20040;-70
2021/06/29 05:22:17;;;;;;;32.97;9.65;;;;;;;;;;5060026;28;20769;-70
2021/06/29 05:24:43;;;;;;;30.85;9.82;;;;;;;;;;5060858;28;20222;-70
2021/06/29 05:27:10;;;;;;;38.42;9.18;;;;;;;;;;5061209;28;20059;-70
2021/06/29 05:29:36;;;;;;;31.27;10.38;;;;;;;;;;5058618;28;20106;-70
2021/06/29 05:32:02;;;;;;;32.25;10.27;;;;;;;;;;5060807;28;20025;-70
2021/06/29 05:34:28;;;;;;;33.10;9.52;;;;;;;;;;5060829;28;20422;-71
2021/06/29 05:36:55;;;;;;;34.63;10.55;;;;;;;;;;5060821;28;20027;-70
2021/06/29 05:39:21;;;;;;;35.25;10.27;;;;;;;;;;5059088;28;20198;-71
2021/06/29 05:41:47;;;;;;;29.85;9.50;;;;;;;;;;5059997;28;20275;-70
2021/06/29 05:44:13;;;;;;;28.88;8.98;;;;;;;;;;5060647;28;20238;-70
2021/06/29 05:46:42;;;;;;;34.00;10.68;;;;;;;;;;5060417;28;20439;-70
2021/06/29 05:49:11;;;;;;;37.38;11.13;;;;;;;;;;5060652;28;20028;-70
2021/06/29 05:51:39;;;;;;;35.60;13.20;;;;;;;;;;5060308;28;20040;-70
2021/06/29 05:54:05;;;;;;;37.97;14.10;;;;;;;;;;5058634;28;20231;-70
2021/06/29 05:56:31;;;;;;;44.92;13.85;;;;;;;;;;5060769;28;20071;-70
2021/06/29 05:58:57;;;;;;;38.67;13.18;;;;;;;;;;5058514;28;20028;-70
2021/06/29 06:01:23;;;;;;;47.72;12.55;;;;;;;;;;5048793;28;20582;-70
2021/06/29 06:03:50;;;;;;;31.92;10.73;;;;;;;;;;5058921;28;20040;-70
2021/06/29 06:06:16;;;;;;;37.90;12.02;;;;;;;;;;5060420;28;20021;-70
2021/06/29 06:08:42;;;;;;;35.28;11.23;;;;;;;;;;5059825;28;20161;-70
2021/06/29 06:11:08;;;;;;;35.30;14.48;;;;;;;;;;5060417;28;20044;-70
2021/06/29 06:13:34;;;;;;;29.85;11.60;;;;;;;;;;5060489;28;20154;-70
2021/06/29 06:16:02;;;;;;;33.65;12.98;;;;;;;;;;5060105;28;20095;-70
2021/06/29 06:18:28;;;;;;;31.73;9.93;;;;;;;;;;5058391;28;20013;-71
2021/06/29 06:20:54;;;;;;;29.15;9.90;;;;;;;;;;5059882;28;20028;-70
2021/06/29 06:23:20;;;;;;;31.52;9.98;;;;;;;;;;5060641;28;20028;-70
2021/06/29 06:25:47;;;;;;;34.70;11.00;;;;;;;;;;5060005;28;20047;-70
2021/06/29 06:28:13;;;;;;;32.60;9.98;;;;;;;;;;5058122;28;20154;-70
2021/06/29 06:30:41;;;;;;;38.28;12.00;;;;;;;;;;5060298;28;20115;-70
2021/06/29 06:33:07;;;;;;;31.85;10.73;;;;;;;;;;5061571;28;20031;-71
2021/06/29 06:35:33;;;;;;;39.75;12.02;;;;;;;;;;5063866;28;20033;-71
2021/06/29 06:38:00;;;;;;;36.13;11.45;;;;;;;;;;5061641;28;20424;-70
2021/06/29 06:40:26;;;;;;;26.23;8.85;;;;;;;;;;5063483;28;20017;-70
2021/06/29 06:42:52;;;;;;;35.15;10.75;;;;;;;;;;5063661;28;20464;-70
2021/06/29 06:45:22;;;;;;;33.20;11.43;;;;;;;;;;5063351;28;20067;-70
2021/06/29 06:47:49;;;;;;;30.90;9.98;;;;;;;;;;5063198;28;20403;-70
2021/06/29 06:50:15;;;;;;;33.50;11.00;;;;;;;;;;5061706;28;20358;-70
2021/06/29 06:52:41;;;;;;;30.25;10.27;;;;;;;;;;5063589;28;20100;-70
2021/06/29 06:55:08;;;;;;;33.10;10.48;;;;;;;;;;5063845;28;20048;-71
2021/06/29 06:57:34;;;;;;;30.38;10.63;;;;;;;;;;5061707;28;20017;-71
2021/06/29 07:00:00;;;;;;;28.65;10.95;;;;;;;;;;5062762;28;20036;-70
2021/06/29 07:02:27;;;;;;;38.70;11.20;;;;;;;;;;5063438;28;20020;-71
2021/06/29 07:04:53;;;;;;;40.55;12.13;;;;;;;;;;5063564;28;20039;-70
2021/06/29 07:07:19;;;;;;;25.30;10.88;;;;;;;;;;5063191;28;20453;-70
2021/06/29 07:09:45;;;;;;;35.10;10.85;;;;;;;;;;5061678;28;20330;-70
2021/06/29 07:12:12;;;;;;;43.08;12.25;;;;;;;;;;5062693;28;20396;-70
2021/06/29 07:14:38;;;;;;;41.22;11.07;;;;;;;;;;5054155;28;20113;-73
2021/06/29 07:17:04;;;;;;;30.58;9.70;;;;;;;;;;5057366;28;20100;-71
2021/06/29 07:19:31;;;;;;;34.85;11.25;;;;;;;;;;5048439;28;20037;-71
2021/06/29 07:21:57;;;;;;;33.75;10.00;;;;;;;;;;5055056;28;20028;-71
2021/06/29 07:24:23;;;;;;;31.13;10.15;;;;;;;;;;5046973;28;20025;-72
2021/06/29 07:26:49;;;;;;;31.48;10.45;;;;;;;;;;5047076;28;20066;-71
2021/06/29 07:29:15;;;;;;;37.00;11.10;;;;;;;;;;5045523;28;20445;-71
2021/06/29 07:31:42;;;;;;;28.13;10.13;;;;;;;;;;5050767;28;20067;-71
2021/06/29 07:34:08;;;;;;;39.88;12.40;;;;;;;;;;5051299;28;20040;-71
2021/06/29 07:36:34;;;;;;;35.58;10.57;;;;;;;;;;5027647;28;20046;-71
2021/06/29 07:39:00;;;;;;;35.47;10.13;;;;;;;;;;5051876;28;20183;-70
2021/06/29 07:41:26;;;;;;;32.75;10.45;;;;;;;;;;5045112;28;20028;-71
2021/06/29 07:43:53;;;;;;;39.70;11.07;;;;;;;;;;5050591;28;20025;-71
2021/06/29 07:46:19;;;;;;;32.83;10.20;;;;;;;;;;5045660;28;20025;-71
2021/06/29 07:48:46;;;;;;;29.88;10.35;;;;;;;;;;5050264;28;20035;-71
2021/06/29 07:51:12;;;;;;;36.15;11.20;;;;;;;;;;5051878;28;20502;-71
2021/06/29 07:53:38;;;;;;;32.03;10.55;;;;;;;;;;5058826;28;20103;-71
2021/06/29 07:56:05;;;;;;;33.08;11.43;;;;;;;;;;5060393;28;20051;-71
2021/06/29 07:58:31;;;;;;;27.85;10.38;;;;;;;;;;5062175;28;20024;-71
2021/06/29 08:00:57;;;;;;;34.35;10.23;;;;;;;;;;5061931;28;20043;-71
2021/06/29 08:03:25;;;;;;;32.45;10.90;;;;;;;;;;5062078;28;20025;-71
2021/06/29 08:05:51;;;;;;;33.22;10.50;;;;;;;;;;5061680;28;20028;-70
2021/06/29 08:08:17;;;;;;;29.00;9.43;;;;;;;;;;5060027;28;20024;-72
2021/06/29 08:10:43;;;;;;;27.05;9.38;;;;;;;;;;5061023;28;20032;-71
2021/06/29 08:13:11;;;;;;;25.23;9.20;;;;;;;;;;5061787;28;20453;-70
2021/06/29 08:15:37;;;;;;;28.63;10.35;;;;;;;;;;5061509;28;20198;-71
2021/06/29 08:18:03;;;;;;;34.33;10.38;;;;;;;;;;5061450;28;20483;-71
2021/06/29 08:20:29;;;;;;;35.22;11.35;;;;;;;;;;5060272;28;20024;-70
2021/06/29 08:22:56;;;;;;;33.47;10.85;;;;;;;;;;5061225;28;20108;-71
2021/06/29 08:25:24;;;;;;;34.97;11.20;;;;;;;;;;5061665;28;20072;-71
2021/06/29 08:27:50;;;;;;;33.70;11.30;;;;;;;;;;5060992;28;20039;-71
2021/06/29 08:30:17;;;;;;;35.30;11.07;;;;;;;;;;5061048;28;20035;-72
2021/06/29 08:32:43;;;;;;;38.92;12.10;;;;;;;;;;5041448;28;20453;-71
2021/06/29 08:35:10;;;;;;;37.42;11.07;;;;;;;;;;5061172;28;20115;-71
2021/06/29 08:37:37;;;;;;;36.47;11.35;;;;;;;;;;5060939;28;20021;-71
2021/06/29 08:40:05;;;;;;;35.92;10.70;;;;;;;;;;5061067;28;20883;-72
2021/06/29 08:42:33;;;;;;;32.38;11.20;;;;;;;;;;5061274;28;20035;-72
2021/06/29 08:45:00;;;;;;;33.08;10.93;;;;;;;;;;5061163;28;20111;-71
2021/06/29 08:47:26;;;;;;;27.60;10.15;;;;;;;;;;5059993;28;20524;-71
2021/06/29 08:49:52;;;;;;;28.52;10.18;;;;;;;;;;5060658;28;20209;-71
2021/06/29 08:52:19;;;;;;;31.20;11.20;;;;;;;;;;5061323;28;20027;-72
2021/06/29 08:54:45;;;;;;;30.63;11.23;;;;;;;;;;5061281;28;20032;-72
2021/06/29 08:57:11;;;;;;;31.60;11.25;;;;;;;;;;5060542;28;20029;-72
2021/06/29 08:59:37;;;;;;;27.42;9.48;;;;;;;;;;5061021;28;20040;-72
2021/06/29 09:02:04;;;;;;;28.42;9.50;;;;;;;;;;5058514;28;20528;-71
2021/06/29 09:04:59;;;;;;;35.30;9.77;;;;;;;;;;5060577;28;20013;-72
2021/06/29 09:07:30;;;;;;;28.70;9.73;;;;;;;;;;5039640;28;20043;-72
2021/06/29 09:09:57;;;;;;;24.20;9.43;;;;;;;;;;5060179;28;20024;-71
2021/06/29 09:12:42;;;;;;;23.60;9.32;;;;;;;;;;5060486;28;20028;-71
2021/06/29 09:15:27;;;;;;;29.42;9.45;;;;;;;;;;5042932;28;20067;-71
2021/06/29 09:17:54;;;;;;;36.00;9.57;;;;;;;;;;5060786;28;20043;-71
2021/06/29 09:20:26;;;;;;;30.23;9.77;;;;;;;;;;5060592;28;20083;-72
2021/06/29 09:22:54;;;;;;;30.92;9.98;;;;;;;;;;5060484;28;20043;-71
2021/06/29 09:25:27;;;;;;;28.00;9.40;;;;;;;;;;5059029;28;20056;-72
2021/06/29 09:27:57;;;;;;;34.00;10.43;;;;;;;;;;5060333;28;20163;-72
2021/06/29 09:30:29;;;;;;;28.33;9.23;;;;;;;;;;5060501;28;20028;-73
2021/06/29 09:33:18;;;;;;;32.05;10.27;;;;;;;;;;5058676;28;20326;-72
2021/06/29 09:35:46;;;;;;;39.78;10.82;;;;;;;;;;5060702;28;20028;-72
2021/06/29 09:38:19;;;;;;;31.63;9.88;;;;;;;;;;5060666;28;20024;-72
2021/06/29 09:40:46;;;;;;;24.30;9.52;;;;;;;;;;5061001;28;20036;-71
2021/06/29 09:43:15;;;;;;;31.58;10.27;;;;;;;;;;5048551;28;20028;-70
2021/06/29 09:45:45;;;;;;;35.80;9.70;;;;;;;;;;5060911;28;20046;-72
2021/06/29 09:48:11;;;;;;;37.70;10.05;;;;;;;;;;5055984;28;20027;-71
2021/06/29 09:50:46;;;;;;;35.33;9.85;;;;;;;;;;5060301;28;20090;-71
2021/06/29 09:53:16;;;;;;;44.22;11.55;;;;;;;;;;5058726;28;20032;-70
2021/06/29 09:55:44;;;;;;;33.20;9.75;;;;;;;;;;5056516;28;20064;-70
2021/06/29 09:58:11;;;;;;;40.05;10.15;;;;;;;;;;5060692;28;20565;-70
2021/06/29 10:00:44;;;;;;;28.27;9.98;;;;;;;;;;5060225;28;20029;-70
2021/06/29 10:03:23;;;;;;;32.05;9.57;;;;;;;;;;5051517;28;20116;-71
2021/06/29 10:05:52;;;;;;;31.90;8.68;;;;;;;;;;5056839;28;20032;-71
2021/06/29 10:08:22;;;;;;;34.55;10.82;;;;;;;;;;5044230;28;20496;-71
2021/06/29 10:10:49;;;;;;;36.47;10.02;;;;;;;;;;5064182;28;20457;-70
2021/06/29 10:13:16;;;;;;;36.42;10.50;;;;;;;;;;5063842;28;20020;-71
2021/06/29 10:15:43;;;;;;;30.38;9.52;;;;;;;;;;5064396;28;20467;-71
2021/06/29 10:18:10;;;;;;;30.55;9.75;;;;;;;;;;5060571;28;20358;-72
2021/06/29 10:20:53;;;;;;;38.22;10.43;;;;;;;;;;5064470;28;20032;-71
2021/06/29 10:23:20;;;;;;;34.85;10.38;;;;;;;;;;5050127;28;20291;-69
2021/06/29 10:25:46;;;;;;;24.65;9.30;;;;;;;;;;5045333;28;20032;-70
2021/06/29 10:28:17;;;;;;;30.40;10.18;;;;;;;;;;5058310;28;20040;-72
2021/06/29 10:30:44;;;;;;;34.80;10.48;;;;;;;;;;5059562;28;20025;-70
2021/06/29 10:33:10;;;;;;;27.42;9.80;;;;;;;;;;5061968;28;20027;-72
2021/06/29 10:35:36;;;;;;;35.20;10.85;;;;;;;;;;5062858;28;20040;-70
2021/06/29 10:38:03;;;;;;;36.25;10.85;;;;;;;;;;5062997;28;20272;-72
2021/06/29 10:40:29;;;;;;;35.30;10.63;;;;;;;;;;5062043;28;20031;-71
2021/06/29 10:42:57;;;;;;;32.15;10.13;;;;;;;;;;5062968;28;20023;-71
2021/06/29 10:45:23;;;;;;;35.60;10.40;;;;;;;;;;5049198;28;20115;-70
2021/06/29 10:47:50;;;;;;;27.23;9.73;;;;;;;;;;5044041;28;20035;-72
2021/06/29 10:50:16;;;;;;;24.88;9.30;;;;;;;;;;5062619;28;20500;-71
2021/06/29 10:52:43;;;;;;;28.58;9.40;;;;;;;;;;5062899;28;20104;-71
2021/06/29 10:55:18;;;;;;;37.63;10.68;;;;;;;;;;5062664;28;20408;-71
2021/06/29 10:57:45;;;;;;;30.33;9.55;;;;;;;;;;5063235;28;20024;-71
2021/06/29 11:00:18;;;;;;;39.88;10.73;;;;;;;;;;5063483;28;20024;-72
2021/06/29 11:02:58;;;;;;;32.22;8.88;;;;;;;;;;5061270;28;20413;-70
2021/06/29 11:05:25;;;;;;;39.67;10.38;;;;;;;;;;5062798;28;20029;-72
2021/06/29 11:07:51;;;;;;;36.58;9.55;;;;;;;;;;5062950;28;20035;-71
2021/06/29 11:10:30;;;;;;;36.55;9.40;;;;;;;;;;5063227;28;20020;-71
2021/06/29 11:13:00;;;;;;;26.35;8.75;;;;;;;;;;5063290;28;20067;-71
2021/06/29 11:15:49;;;;;;;30.75;9.30;;;;;;;;;;5061920;28;20047;-71
2021/06/29 11:18:15;;;;;;;29.90;9.05;;;;;;;;;;5046290;28;20086;-71
2021/06/29 11:20:43;;;;;;;27.00;9.15;;;;;;;;;;5062875;28;20542;-71
2021/06/29 11:23:15;;;;;;;28.67;8.05;;;;;;;;;;5063387;28;20067;-71
2021/06/29 11:25:55;;;;;;;36.65;9.57;;;;;;;;;;5060624;28;20039;-71
2021/06/29 11:28:29;;;;;;;34.67;10.45;;;;;;;;;;5062193;28;20084;-72
2021/06/29 11:30:57;;;;;;;28.75;9.98;;;;;;;;;;5062596;28;20025;-73
2021/06/29 11:33:38;;;;;;;30.52;10.35;;;;;;;;;;5062206;28;20591;-72
2021/06/29 11:36:06;;;;;;;23.00;9.05;;;;;;;;;;5062617;28;20040;-72
2021/06/29 11:38:37;;;;;;;35.33;10.55;;;;;;;;;;5061269;28;20458;-71
2021/06/29 11:41:22;;;;;;;35.40;10.05;;;;;;;;;;5040426;28;20112;-71
2021/06/29 11:43:48;;;;;;;30.08;9.23;;;;;;;;;;5053312;28;20025;-71
2021/06/29 11:46:33;;;;;;;31.70;9.13;;;;;;;;;;5062540;28;20051;-71
2021/06/29 11:49:08;;;;;;;28.13;9.40;;;;;;;;;;5050254;28;20024;-71
2021/06/29 11:51:53;;;;;;;31.98;9.48;;;;;;;;;;5050945;28;20032;-71
2021/06/29 11:54:26;;;;;;;25.20;8.55;;;;;;;;;;5062508;28;20306;-71
2021/06/29 11:56:52;;;;;;;33.22;9.35;;;;;;;;;;5062178;28;20029;-73
2021/06/29 11:59:25;;;;;;;24.50;10.05;;;;;;;;;;5062261;28;20025;-71
2021/06/29 12:02:01;;;;;;;28.35;9.40;;;;;;;;;;5058978;28;20094;-71
2021/06/29 12:04:27;;;;;;;25.98;9.73;;;;;;;;;;5058046;28;20464;-71
2021/06/29 12:07:03;;;;;;;31.27;9.45;;;;;;;;;;5053410;28;20094;-71
2021/06/29 12:09:33;;;;;;;30.10;9.70;;;;;;;;;;5061805;28;20028;-73
2021/06/29 12:12:18;;;;;;;24.77;9.35;;;;;;;;;;5061680;28;20030;-71
2021/06/29 12:14:44;;;;;;;32.65;10.35;;;;;;;;;;5061527;28;20076;-71
2021/06/29 12:17:11;;;;;;;42.53;11.20;;;;;;;;;;5057447;28;20028;-72
2021/06/29 12:19:37;;;;;;;30.67;9.55;;;;;;;;;;5042109;28;20040;-71
2021/06/29 12:22:04;;;;;;;30.10;8.80;;;;;;;;;;5054846;28;20024;-71
2021/06/29 12:24:30;;;;;;;28.48;8.73;;;;;;;;;;5050903;28;20056;-71
2021/06/29 12:26:56;;;;;;;34.33;8.60;;;;;;;;;;5061224;28;20025;-73
2021/06/29 12:29:30;;;;;;;26.80;8.57;;;;;;;;;;5060682;28;20123;-71
2021/06/29 12:31:56;;;;;;;30.67;8.68;;;;;;;;;;5059480;28;20024;-72
2021/06/29 12:34:23;;;;;;;24.85;8.15;;;;;;;;;;5060206;28;20067;-71
2021/06/29 12:36:50;;;;;;;26.65;7.85;;;;;;;;;;5060986;28;20044;-71
2021/06/29 12:39:16;;;;;;;32.25;8.82;;;;;;;;;;5061656;28;20017;-71
2021/06/29 12:41:43;;;;;;;26.80;7.65;;;;;;;;;;5059848;28;20029;-71
2021/06/29 12:44:10;;;;;;;32.22;8.93;;;;;;;;;;5035044;28;20032;-71
2021/06/29 12:46:37;;;;;;;25.83;7.45;;;;;;;;;;5057175;28;20028;-71
2021/06/29 12:49:07;;;;;;;28.30;8.18;;;;;;;;;;5059600;28;20115;-71
2021/06/29 12:51:39;;;;;;;29.02;7.90;;;;;;;;;;5043635;28;20052;-70
2021/06/29 12:54:05;;;;;;;;;;;;;;;;;;5061421;28;20044;-73
2021/06/29 12:56:50;;;;;;;18.92;6.45;;;;;;;;;;5054685;28;19954;-71
2021/06/29 12:59:18;;;;;;;28.48;8.38;;;;;;;;;;5047192;28;20032;-71
2021/06/29 13:01:46;;;;;;;31.30;7.82;;;;;;;;;;5060781;28;20033;-71
2021/06/29 13:04:15;;;;;;;26.80;8.40;;;;;;;;;;5058363;28;20072;-72
2021/06/29 13:06:42;;;;;;;21.48;7.43;;;;;;;;;;5060181;28;20107;-71
2021/06/29 13:09:16;;;;;;;28.70;8.23;;;;;;;;;;5059902;28;20031;-71
2021/06/29 13:12:02;;;;;;;26.67;8.30;;;;;;;;;;5060051;28;20036;-71
2021/06/29 13:14:29;;;;;;;26.40;7.93;;;;;;;;;;5059552;28;20048;-71
2021/06/29 13:17:07;;;;;;;26.23;7.82;;;;;;;;;;5058902;28;20028;-71
2021/06/29 13:19:33;;;;;;;35.63;7.82;;;;;;;;;;5061258;28;20013;-71
2021/06/29 13:22:01;;;;;;;30.95;7.47;;;;;;;;;;5060487;28;20024;-71
2021/06/29 13:24:38;;;;;;;27.60;7.40;;;;;;;;;;5060609;28;20115;-71
2021/06/29 13:27:05;;;;;;;27.30;8.43;;;;;;;;;;5057211;28;20506;-71
2021/06/29 13:29:34;;;;;;;26.33;7.38;;;;;;;;;;5053307;28;20489;-71
2021/06/29 13:32:01;;;;;;;38.03;8.02;;;;;;;;;;5052995;28;20029;-71
2021/06/29 13:34:33;;;;;;;28.42;7.72;;;;;;;;;;5046437;28;20029;-71
2021/06/29 13:37:15;;;;;;;29.50;7.32;;;;;;;;;;5053638;28;20100;-72
2021/06/29 13:39:42;;;;;;;35.35;7.20;;;;;;;;;;5048734;28;20113;-71
2021/06/29 13:42:17;;;;;;;28.42;7.38;;;;;;;;;;5054651;28;20024;-71
2021/06/29 13:44:55;;;;;;;30.05;7.25;;;;;;;;;;5052142;28;20033;-71
2021/06/29 13:47:22;;;;;;;27.85;7.65;;;;;;;;;;5056170;28;20047;-71
2021/06/29 13:50:08;;;;;;;28.85;7.00;;;;;;;;;;5051048;28;20111;-71
2021/06/29 13:52:35;;;;;;;30.38;7.38;;;;;;;;;;5057357;28;20021;-71
2021/06/29 13:55:10;;;;;;;24.10;6.50;;;;;;;;;;5064559;28;20045;-71
2021/06/29 13:57:36;;;;;;;24.35;7.40;;;;;;;;;;5064426;28;20017;-71
2021/06/29 14:00:21;;;;;;;30.48;7.82;;;;;;;;;;5064648;28;20353;-71
2021/06/29 14:02:58;;;;;;;28.30;7.97;;;;;;;;;;5063375;28;20028;-70
2021/06/29 14:05:34;;;;;;;54.63;10.20;;;;;;;;;;5064772;28;20029;-71
2021/06/29 14:08:10;;;;;;;33.17;9.15;;;;;;;;;;5064453;28;20027;-70
2021/06/29 14:10:36;;;;;;;25.42;9.00;;;;;;;;;;5063937;28;20503;-71
2021/06/29 14:13:03;;;;;;;31.95;9.48;;;;;;;;;;5062560;28;20097;-71
2021/06/29 14:15:29;;;;;;;38.17;9.90;;;;;;;;;;5064217;28;20043;-71
2021/06/29 14:17:55;;;;;;;35.83;9.55;;;;;;;;;;5064095;28;20020;-71
2021/06/29 14:20:21;;;;;;;36.85;8.90;;;;;;;;;;5064524;28;20167;-72
2021/06/29 14:22:47;;;;;;;31.95;8.75;;;;;;;;;;5064022;28;20025;-70
2021/06/29 14:25:14;;;;;;;26.98;8.05;;;;;;;;;;5062306;28;20442;-71
2021/06/29 14:27:40;;;;;;;25.77;9.18;;;;;;;;;;5063308;28;20123;-71
2021/06/29 14:30:07;;;;;;;25.60;8.15;;;;;;;;;;5063346;28;20052;-71
2021/06/29 14:32:33;;;;;;;41.22;10.27;;;;;;;;;;5064322;28;20023;-70
2021/06/29 14:34:59;;;;;;;37.20;9.02;;;;;;;;;;5044159;28;20427;-71